Terminal Aerodrome Forecast
Issued by NWS Shreveport, LA

Home | Current Version | Previous Version | Text Only | Print | Product List | Glossary On
Versions: 1 2 3 4 5 6 7 8 9 10 11 12 13 14 15 16 17 18 19 20
000
FTUS44 KSHV 270936 AAA
TAFLFK
TAF AMD
KLFK 270936Z 2710/2806 VRB10G18KT 5SM TSRA BR BKN015 OVC060CB
     FM271600 16014G22KT P6SM VCTS BKN025CB=

USA.gov is the U.S. government's official web portal to all federal, state and local government web resources and services.